sensor_id;sensor_type;location;lat;lon;timestamp;temperature;humidity
45137;DHT22;30894;51.740;19.498;2023-02-05T00:01:38;-1.10;99.90
45137;DHT22;30894;51.740;19.498;2023-02-05T00:04:06;-1.10;99.90
45137;DHT22;30894;51.740;19.498;2023-02-05T00:06:32;-1.10;99.90
45137;DHT22;30894;51.740;19.498;2023-02-05T00:09:02;-1.20;99.90
45137;DHT22;30894;51.740;19.498;2023-02-05T00:11:29;-1.20;99.90
45137;DHT22;30894;51.740;19.498;2023-02-05T00:13:58;-1.30;99.90
45137;DHT22;30894;51.740;19.498;2023-02-05T00:16:25;-1.30;99.90
45137;DHT22;30894;51.740;19.498;2023-02-05T00:18:57;-1.40;99.90
45137;DHT22;30894;51.740;19.498;2023-02-05T00:21:31;-1.40;99.90
45137;DHT22;30894;51.740;19.498;2023-02-05T00:24:07;-1.50;99.90
45137;DHT22;30894;51.740;19.498;2023-02-05T00:26:41;-1.50;99.90
45137;DHT22;30894;51.740;19.498;2023-02-05T00:29:10;-1.60;99.90
45137;DHT22;30894;51.740;19.498;2023-02-05T00:31:37;-1.70;99.90
45137;DHT22;30894;51.740;19.498;2023-02-05T00:34:10;-1.70;99.90
45137;DHT22;30894;51.740;19.498;2023-02-05T00:36:41;-1.80;99.90
45137;DHT22;30894;51.740;19.498;2023-02-05T00:39:08;-2.00;99.90
45137;DHT22;30894;51.740;19.498;2023-02-05T00:41:41;-2.20;99.90
45137;DHT22;30894;51.740;19.498;2023-02-05T00:44:31;-2.40;99.90
45137;DHT22;30894;51.740;19.498;2023-02-05T00:47:09;-2.60;99.90
45137;DHT22;30894;51.740;19.498;2023-02-05T00:49:46;-2.80;99.90
45137;DHT22;30894;51.740;19.498;2023-02-05T00:56:06;-3.20;99.90
45137;DHT22;30894;51.740;19.498;2023-02-05T00:59:10;-3.50;99.90
45137;DHT22;30894;51.740;19.498;2023-02-05T01:01:46;-3.70;99.90
45137;DHT22;30894;51.740;19.498;2023-02-05T01:07:48;-3.80;99.90
45137;DHT22;30894;51.740;19.498;2023-02-05T01:10:33;-4.00;99.90
45137;DHT22;30894;51.740;19.498;2023-02-05T01:13:15;-4.20;99.90
45137;DHT22;30894;51.740;19.498;2023-02-05T01:15:46;-4.30;99.90
45137;DHT22;30894;51.740;19.498;2023-02-05T01:18:43;-4.40;99.90
45137;DHT22;30894;51.740;19.498;2023-02-05T01:21:09;-4.60;99.90
45137;DHT22;30894;51.740;19.498;2023-02-05T01:23:40;-4.60;99.90
45137;DHT22;30894;51.740;19.498;2023-02-05T01:26:07;-4.70;99.90
45137;DHT22;30894;51.740;19.498;2023-02-05T01:28:54;-4.80;99.90
45137;DHT22;30894;51.740;19.498;2023-02-05T01:31:28;-4.80;99.90
45137;DHT22;30894;51.740;19.498;2023-02-05T01:34:08;-4.90;99.90
45137;DHT22;30894;51.740;19.498;2023-02-05T01:36:39;-5.00;99.90
45137;DHT22;30894;51.740;19.498;2023-02-05T01:39:05;-5.00;99.90
45137;DHT22;30894;51.740;19.498;2023-02-05T01:41:32;-5.10;99.90
45137;DHT22;30894;51.740;19.498;2023-02-05T01:46:59;-5.30;99.90
45137;DHT22;30894;51.740;19.498;2023-02-05T01:49:40;-5.40;99.90
45137;DHT22;30894;51.740;19.498;2023-02-05T01:52:13;-5.50;99.90
45137;DHT22;30894;51.740;19.498;2023-02-05T01:54:45;-5.60;99.90
45137;DHT22;30894;51.740;19.498;2023-02-05T01:57:23;-5.70;99.90
45137;DHT22;30894;51.740;19.498;2023-02-05T01:59:54;-5.80;99.90
45137;DHT22;30894;51.740;19.498;2023-02-05T02:02:41;-5.90;99.90
45137;DHT22;30894;51.740;19.498;2023-02-05T02:05:10;-6.00;99.90
45137;DHT22;30894;51.740;19.498;2023-02-05T02:07:38;-6.20;99.90
45137;DHT22;30894;51.740;19.498;2023-02-05T02:10:05;-6.20;99.90
45137;DHT22;30894;51.740;19.498;2023-02-05T02:12:35;-6.40;99.90
45137;DHT22;30894;51.740;19.498;2023-02-05T02:15:07;-6.40;99.90
45137;DHT22;30894;51.740;19.498;2023-02-05T02:17:36;-6.60;99.90
45137;DHT22;30894;51.740;19.498;2023-02-05T02:28:37;-7.00;99.90
45137;DHT22;30894;51.740;19.498;2023-02-05T02:31:30;-7.00;99.90
45137;DHT22;30894;51.740;19.498;2023-02-05T02:34:11;-7.10;99.90
45137;DHT22;30894;51.740;19.498;2023-02-05T02:37:07;-7.00;99.90
45137;DHT22;30894;51.740;19.498;2023-02-05T02:39:39;-6.90;99.90
45137;DHT22;30894;51.740;19.498;2023-02-05T02:42:14;-6.90;99.90
45137;DHT22;30894;51.740;19.498;2023-02-05T02:45:02;-7.00;99.90
45137;DHT22;30894;51.740;19.498;2023-02-05T02:47:36;-7.00;99.90
45137;DHT22;30894;51.740;19.498;2023-02-05T02:50:25;-7.00;99.90
45137;DHT22;30894;51.740;19.498;2023-02-05T02:53:09;-7.00;99.90
45137;DHT22;30894;51.740;19.498;2023-02-05T02:55:40;-6.80;99.90
45137;DHT22;30894;51.740;19.498;2023-02-05T02:58:12;-6.80;99.90
45137;DHT22;30894;51.740;19.498;2023-02-05T03:00:43;-6.90;99.90
45137;DHT22;30894;51.740;19.498;2023-02-05T03:03:12;-7.00;99.90
45137;DHT22;30894;51.740;19.498;2023-02-05T03:05:43;-7.10;99.90
45137;DHT22;30894;51.740;19.498;2023-02-05T03:08:33;-7.10;99.90
45137;DHT22;30894;51.740;19.498;2023-02-05T03:11:13;-6.90;99.90
45137;DHT22;30894;51.740;19.498;2023-02-05T03:13:41;-6.80;99.90
45137;DHT22;30894;51.740;19.498;2023-02-05T03:16:08;-6.50;99.90
45137;DHT22;30894;51.740;19.498;2023-02-05T03:18:36;-6.10;99.90
45137;DHT22;30894;51.740;19.498;2023-02-05T03:21:08;-5.90;99.90
45137;DHT22;30894;51.740;19.498;2023-02-05T03:23:37;-5.60;99.90
45137;DHT22;30894;51.740;19.498;2023-02-05T03:26:03;-5.30;99.90
45137;DHT22;30894;51.740;19.498;2023-02-05T03:28:29;-5.20;99.90
45137;DHT22;30894;51.740;19.498;2023-02-05T03:31:05;-5.10;99.90
45137;DHT22;30894;51.740;19.498;2023-02-05T03:33:53;-4.90;99.90
45137;DHT22;30894;51.740;19.498;2023-02-05T03:36:57;-4.80;99.90
45137;DHT22;30894;51.740;19.498;2023-02-05T03:39:48;-4.70;99.90
45137;DHT22;30894;51.740;19.498;2023-02-05T03:47:54;-4.50;99.90
45137;DHT22;30894;51.740;19.498;2023-02-05T03:50:40;-4.50;99.90
45137;DHT22;30894;51.740;19.498;2023-02-05T03:53:20;-4.50;99.90
45137;DHT22;30894;51.740;19.498;2023-02-05T03:56:06;-4.60;99.90
45137;DHT22;30894;51.740;19.498;2023-02-05T03:58:47;-4.70;99.90
45137;DHT22;30894;51.740;19.498;2023-02-05T04:01:15;-4.80;99.90
45137;DHT22;30894;51.740;19.498;2023-02-05T04:03:41;-5.00;99.90
45137;DHT22;30894;51.740;19.498;2023-02-05T04:06:08;-5.20;99.90
45137;DHT22;30894;51.740;19.498;2023-02-05T04:08:34;-5.40;99.90
45137;DHT22;30894;51.740;19.498;2023-02-05T04:11:00;-5.60;99.90
45137;DHT22;30894;51.740;19.498;2023-02-05T04:13:26;-5.70;99.90
45137;DHT22;30894;51.740;19.498;2023-02-05T04:15:52;-5.90;99.90
45137;DHT22;30894;51.740;19.498;2023-02-05T04:18:18;-6.10;99.90
45137;DHT22;30894;51.740;19.498;2023-02-05T04:20:44;-6.20;99.90
45137;DHT22;30894;51.740;19.498;2023-02-05T04:23:11;-6.40;99.90
45137;DHT22;30894;51.740;19.498;2023-02-05T04:25:37;-6.50;99.90
45137;DHT22;30894;51.740;19.498;2023-02-05T04:28:05;-6.60;99.90
45137;DHT22;30894;51.740;19.498;2023-02-05T04:30:32;-6.70;99.90
45137;DHT22;30894;51.740;19.498;2023-02-05T04:32:58;-6.70;99.90
45137;DHT22;30894;51.740;19.498;2023-02-05T04:35:24;-6.80;99.90
45137;DHT22;30894;51.740;19.498;2023-02-05T04:37:51;-6.90;99.90
45137;DHT22;30894;51.740;19.498;2023-02-05T04:40:17;-6.90;99.90
45137;DHT22;30894;51.740;19.498;2023-02-05T04:42:43;-7.00;99.90
45137;DHT22;30894;51.740;19.498;2023-02-05T04:45:11;-7.00;99.90
45137;DHT22;30894;51.740;19.498;2023-02-05T04:47:37;-7.00;99.90
45137;DHT22;30894;51.740;19.498;2023-02-05T04:50:04;-7.10;99.90
45137;DHT22;30894;51.740;19.498;2023-02-05T04:52:30;-7.20;99.90
45137;DHT22;30894;51.740;19.498;2023-02-05T04:54:56;-7.20;99.90
45137;DHT22;30894;51.740;19.498;2023-02-05T04:57:22;-7.20;99.90
45137;DHT22;30894;51.740;19.498;2023-02-05T04:59:49;-7.20;99.90
45137;DHT22;30894;51.740;19.498;2023-02-05T05:02:15;-7.10;99.90
45137;DHT22;30894;51.740;19.498;2023-02-05T05:04:41;-7.00;99.90
45137;DHT22;30894;51.740;19.498;2023-02-05T05:07:08;-6.90;99.90
45137;DHT22;30894;51.740;19.498;2023-02-05T05:09:37;-6.70;99.90
45137;DHT22;30894;51.740;19.498;2023-02-05T05:12:04;-6.60;99.90
45137;DHT22;30894;51.740;19.498;2023-02-05T05:14:30;-6.50;99.90
45137;DHT22;30894;51.740;19.498;2023-02-05T05:16:56;-6.40;99.90
45137;DHT22;30894;51.740;19.498;2023-02-05T05:19:22;-6.40;99.90
45137;DHT22;30894;51.740;19.498;2023-02-05T05:21:48;-6.20;99.90
45137;DHT22;30894;51.740;19.498;2023-02-05T05:24:14;-6.10;99.90
45137;DHT22;30894;51.740;19.498;2023-02-05T05:26:40;-6.00;99.90
45137;DHT22;30894;51.740;19.498;2023-02-05T05:29:13;-5.90;99.90
45137;DHT22;30894;51.740;19.498;2023-02-05T05:31:40;-5.80;99.90
45137;DHT22;30894;51.740;19.498;2023-02-05T05:34:06;-5.70;99.90
45137;DHT22;30894;51.740;19.498;2023-02-05T05:36:32;-5.60;99.90
45137;DHT22;30894;51.740;19.498;2023-02-05T05:38:58;-5.50;99.90
45137;DHT22;30894;51.740;19.498;2023-02-05T05:41:45;-5.40;99.90
45137;DHT22;30894;51.740;19.498;2023-02-05T05:44:29;-5.30;99.90
45137;DHT22;30894;51.740;19.498;2023-02-05T05:46:55;-5.20;99.90
45137;DHT22;30894;51.740;19.498;2023-02-05T05:49:21;-5.10;99.90
45137;DHT22;30894;51.740;19.498;2023-02-05T05:51:47;-5.10;99.90
45137;DHT22;30894;51.740;19.498;2023-02-05T05:54:13;-5.10;99.90
45137;DHT22;30894;51.740;19.498;2023-02-05T05:56:39;-5.00;99.90
45137;DHT22;30894;51.740;19.498;2023-02-05T05:59:05;-4.90;99.90
45137;DHT22;30894;51.740;19.498;2023-02-05T06:01:32;-4.90;99.90
45137;DHT22;30894;51.740;19.498;2023-02-05T06:03:57;-4.90;99.90
45137;DHT22;30894;51.740;19.498;2023-02-05T06:06:24;-4.90;99.90
45137;DHT22;30894;51.740;19.498;2023-02-05T06:08:50;-4.80;99.90
45137;DHT22;30894;51.740;19.498;2023-02-05T06:11:17;-4.70;99.90
45137;DHT22;30894;51.740;19.498;2023-02-05T06:13:43;-4.70;99.90
45137;DHT22;30894;51.740;19.498;2023-02-05T06:16:09;-4.60;99.90
45137;DHT22;30894;51.740;19.498;2023-02-05T06:18:35;-4.60;99.90
45137;DHT22;30894;51.740;19.498;2023-02-05T06:21:02;-4.60;99.90
45137;DHT22;30894;51.740;19.498;2023-02-05T06:23:31;-4.50;99.90
45137;DHT22;30894;51.740;19.498;2023-02-05T06:25:58;-4.50;99.90
45137;DHT22;30894;51.740;19.498;2023-02-05T06:28:24;-4.40;99.90
45137;DHT22;30894;51.740;19.498;2023-02-05T06:30:50;-4.40;99.90
45137;DHT22;30894;51.740;19.498;2023-02-05T06:33:16;-4.40;99.90
45137;DHT22;30894;51.740;19.498;2023-02-05T06:35:43;-4.30;99.90
45137;DHT22;30894;51.740;19.498;2023-02-05T06:38:09;-4.30;99.90
45137;DHT22;30894;51.740;19.498;2023-02-05T06:40:36;-4.20;99.90
45137;DHT22;30894;51.740;19.498;2023-02-05T06:43:02;-4.20;99.90
45137;DHT22;30894;51.740;19.498;2023-02-05T06:45:29;-4.10;99.90
45137;DHT22;30894;51.740;19.498;2023-02-05T06:47:55;-4.00;99.90
45137;DHT22;30894;51.740;19.498;2023-02-05T06:50:24;-4.00;99.90
45137;DHT22;30894;51.740;19.498;2023-02-05T06:52:51;-4.00;99.90
45137;DHT22;30894;51.740;19.498;2023-02-05T06:55:18;-3.90;99.90
45137;DHT22;30894;51.740;19.498;2023-02-05T06:57:44;-3.90;99.90
45137;DHT22;30894;51.740;19.498;2023-02-05T07:00:12;-3.80;99.90
45137;DHT22;30894;51.740;19.498;2023-02-05T07:02:38;-3.80;99.90
45137;DHT22;30894;51.740;19.498;2023-02-05T07:05:05;-3.70;99.90
45137;DHT22;30894;51.740;19.498;2023-02-05T07:07:33;-3.70;99.90
45137;DHT22;30894;51.740;19.498;2023-02-05T07:09:59;-3.70;99.90
45137;DHT22;30894;51.740;19.498;2023-02-05T07:12:26;-3.60;99.90
45137;DHT22;30894;51.740;19.498;2023-02-05T07:14:53;-3.60;99.90
45137;DHT22;30894;51.740;19.498;2023-02-05T07:17:19;-3.60;99.90
45137;DHT22;30894;51.740;19.498;2023-02-05T07:19:46;-3.50;99.90
45137;DHT22;30894;51.740;19.498;2023-02-05T07:22:13;-3.50;99.90
45137;DHT22;30894;51.740;19.498;2023-02-05T07:24:40;-3.40;99.90
45137;DHT22;30894;51.740;19.498;2023-02-05T07:27:07;-3.40;99.90
45137;DHT22;30894;51.740;19.498;2023-02-05T07:29:33;-3.40;99.90
45137;DHT22;30894;51.740;19.498;2023-02-05T07:32:00;-3.30;99.90
45137;DHT22;30894;51.740;19.498;2023-02-05T07:34:26;-3.30;99.90
45137;DHT22;30894;51.740;19.498;2023-02-05T07:36:53;-3.20;99.90
45137;DHT22;30894;51.740;19.498;2023-02-05T07:39:19;-3.20;99.90
45137;DHT22;30894;51.740;19.498;2023-02-05T07:41:47;-3.20;99.90
45137;DHT22;30894;51.740;19.498;2023-02-05T07:44:14;-3.10;99.90
45137;DHT22;30894;51.740;19.498;2023-02-05T07:46:40;-3.10;99.90
45137;DHT22;30894;51.740;19.498;2023-02-05T07:49:06;-3.00;99.90
45137;DHT22;30894;51.740;19.498;2023-02-05T07:51:33;-2.90;99.90
45137;DHT22;30894;51.740;19.498;2023-02-05T07:53:59;-2.90;99.90
45137;DHT22;30894;51.740;19.498;2023-02-05T07:56:31;-2.80;99.90
45137;DHT22;30894;51.740;19.498;2023-02-05T07:58:57;-2.80;99.90
45137;DHT22;30894;51.740;19.498;2023-02-05T08:01:23;-2.70;99.90
45137;DHT22;30894;51.740;19.498;2023-02-05T08:03:50;-2.70;99.90
45137;DHT22;30894;51.740;19.498;2023-02-05T08:06:16;-2.70;99.90
45137;DHT22;30894;51.740;19.498;2023-02-05T08:08:43;-2.60;99.90
45137;DHT22;30894;51.740;19.498;2023-02-05T08:11:13;-2.50;99.90
45137;DHT22;30894;51.740;19.498;2023-02-05T08:13:41;-2.40;99.90
45137;DHT22;30894;51.740;19.498;2023-02-05T08:16:09;-2.40;99.90
45137;DHT22;30894;51.740;19.498;2023-02-05T08:18:36;-2.30;99.90
45137;DHT22;30894;51.740;19.498;2023-02-05T08:21:02;-2.20;99.90
45137;DHT22;30894;51.740;19.498;2023-02-05T08:23:30;-2.10;99.90
45137;DHT22;30894;51.740;19.498;2023-02-05T08:25:57;-2.10;99.90
45137;DHT22;30894;51.740;19.498;2023-02-05T08:28:25;-2.10;99.90
45137;DHT22;30894;51.740;19.498;2023-02-05T08:30:52;-2.10;99.90
45137;DHT22;30894;51.740;19.498;2023-02-05T08:33:18;-2.00;99.90
45137;DHT22;30894;51.740;19.498;2023-02-05T08:35:44;-1.90;99.90
45137;DHT22;30894;51.740;19.498;2023-02-05T08:38:11;-1.80;99.90
45137;DHT22;30894;51.740;19.498;2023-02-05T08:40:37;-1.80;99.90
45137;DHT22;30894;51.740;19.498;2023-02-05T08:43:04;-1.70;99.90
45137;DHT22;30894;51.740;19.498;2023-02-05T08:45:32;-1.60;99.90
45137;DHT22;30894;51.740;19.498;2023-02-05T08:48:00;-1.50;99.90
45137;DHT22;30894;51.740;19.498;2023-02-05T08:50:26;-1.50;99.90
45137;DHT22;30894;51.740;19.498;2023-02-05T08:52:52;-1.40;99.90
45137;DHT22;30894;51.740;19.498;2023-02-05T08:55:19;-1.30;99.90
45137;DHT22;30894;51.740;19.498;2023-02-05T08:57:45;-1.20;99.90
45137;DHT22;30894;51.740;19.498;2023-02-05T09:00:12;-1.10;99.90
45137;DHT22;30894;51.740;19.498;2023-02-05T09:02:41;-1.00;99.90
45137;DHT22;30894;51.740;19.498;2023-02-05T09:05:08;-0.90;99.90
45137;DHT22;30894;51.740;19.498;2023-02-05T09:07:38;-0.70;99.90
45137;DHT22;30894;51.740;19.498;2023-02-05T09:10:11;-0.60;99.90
45137;DHT22;30894;51.740;19.498;2023-02-05T09:12:38;-0.40;99.90
45137;DHT22;30894;51.740;19.498;2023-02-05T09:15:06;-0.30;99.90
45137;DHT22;30894;51.740;19.498;2023-02-05T09:17:32;-0.30;99.90
45137;DHT22;30894;51.740;19.498;2023-02-05T09:19:59;-0.20;99.90
45137;DHT22;30894;51.740;19.498;2023-02-05T09:22:25;-0.20;99.90
45137;DHT22;30894;51.740;19.498;2023-02-05T09:24:51;-0.10;99.90
45137;DHT22;30894;51.740;19.498;2023-02-05T09:27:18;0.00;99.90
45137;DHT22;30894;51.740;19.498;2023-02-05T09:29:45;0.10;99.90
45137;DHT22;30894;51.740;19.498;2023-02-05T09:32:11;0.20;99.90
45137;DHT22;30894;51.740;19.498;2023-02-05T09:34:37;0.30;99.90
45137;DHT22;30894;51.740;19.498;2023-02-05T09:37:04;0.40;99.90
45137;DHT22;30894;51.740;19.498;2023-02-05T09:39:30;0.40;99.90
45137;DHT22;30894;51.740;19.498;2023-02-05T09:45:02;0.60;99.90
45137;DHT22;30894;51.740;19.498;2023-02-05T09:48:20;0.70;99.90
45137;DHT22;30894;51.740;19.498;2023-02-05T09:51:21;0.80;99.90
45137;DHT22;30894;51.740;19.498;2023-02-05T09:53:55;1.00;99.90
45137;DHT22;30894;51.740;19.498;2023-02-05T09:56:24;1.00;99.90
45137;DHT22;30894;51.740;19.498;2023-02-05T09:58:53;1.10;99.90
45137;DHT22;30894;51.740;19.498;2023-02-05T10:04:02;1.20;99.90
45137;DHT22;30894;51.740;19.498;2023-02-05T10:15:02;1.30;99.90
45137;DHT22;30894;51.740;19.498;2023-02-05T10:18:08;1.30;99.90
45137;DHT22;30894;51.740;19.498;2023-02-05T10:20:55;1.40;99.90
45137;DHT22;30894;51.740;19.498;2023-02-05T10:26:54;1.60;99.90
45137;DHT22;30894;51.740;19.498;2023-02-05T10:29:32;1.70;99.90
45137;DHT22;30894;51.740;19.498;2023-02-05T10:32:23;1.80;99.90
45137;DHT22;30894;51.740;19.498;2023-02-05T10:34:57;1.90;99.90
45137;DHT22;30894;51.740;19.498;2023-02-05T10:37:51;2.00;99.90
45137;DHT22;30894;51.740;19.498;2023-02-05T10:40:39;2.10;99.90
45137;DHT22;30894;51.740;19.498;2023-02-05T10:45:52;2.30;99.90
45137;DHT22;30894;51.740;19.498;2023-02-05T10:48:45;2.30;99.90
45137;DHT22;30894;51.740;19.498;2023-02-05T10:51:23;2.40;99.90
45137;DHT22;30894;51.740;19.498;2023-02-05T10:53:54;2.60;99.90
45137;DHT22;30894;51.740;19.498;2023-02-05T10:56:21;2.70;99.90
45137;DHT22;30894;51.740;19.498;2023-02-05T10:58:54;2.80;99.90
45137;DHT22;30894;51.740;19.498;2023-02-05T11:01:30;2.80;99.90
45137;DHT22;30894;51.740;19.498;2023-02-05T11:04:11;2.80;99.90
45137;DHT22;30894;51.740;19.498;2023-02-05T11:06:46;2.90;99.90
45137;DHT22;30894;51.740;19.498;2023-02-05T11:11:51;3.10;99.90
45137;DHT22;30894;51.740;19.498;2023-02-05T11:14:33;3.10;99.90
45137;DHT22;30894;51.740;19.498;2023-02-05T11:17:16;3.10;99.90
45137;DHT22;30894;51.740;19.498;2023-02-05T11:20:02;3.10;99.90
45137;DHT22;30894;51.740;19.498;2023-02-05T11:22:35;3.10;99.90
45137;DHT22;30894;51.740;19.498;2023-02-05T11:27:51;3.00;99.90
45137;DHT22;30894;51.740;19.498;2023-02-05T11:32:53;3.00;99.90
45137;DHT22;30894;51.740;19.498;2023-02-05T11:35:30;3.00;99.90
45137;DHT22;30894;51.740;19.498;2023-02-05T11:38:09;3.00;99.90
45137;DHT22;30894;51.740;19.498;2023-02-05T11:40:51;3.30;99.90
45137;DHT22;30894;51.740;19.498;2023-02-05T11:43:25;3.40;99.90
45137;DHT22;30894;51.740;19.498;2023-02-05T11:46:07;3.40;99.90
45137;DHT22;30894;51.740;19.498;2023-02-05T11:48:40;3.40;99.90
45137;DHT22;30894;51.740;19.498;2023-02-05T11:51:35;3.40;99.90
45137;DHT22;30894;51.740;19.498;2023-02-05T11:54:30;3.90;99.90
45137;DHT22;30894;51.740;19.498;2023-02-05T12:02:36;4.10;99.90
45137;DHT22;30894;51.740;19.498;2023-02-05T12:05:18;5.10;99.90
45137;DHT22;30894;51.740;19.498;2023-02-05T12:08:06;6.40;99.90
45137;DHT22;30894;51.740;19.498;2023-02-05T12:19:30;7.30;99.90
45137;DHT22;30894;51.740;19.498;2023-02-05T12:27:56;8.70;99.90
45137;DHT22;30894;51.740;19.498;2023-02-05T12:45:23;11.10;96.80
45137;DHT22;30894;51.740;19.498;2023-02-05T12:56:46;11.20;97.40
45137;DHT22;30894;51.740;19.498;2023-02-05T12:59:49;11.30;97.60
45137;DHT22;30894;51.740;19.498;2023-02-05T13:02:21;11.30;97.90
45137;DHT22;30894;51.740;19.498;2023-02-05T13:05:03;11.30;98.30
45137;DHT22;30894;51.740;19.498;2023-02-05T13:07:38;11.20;98.60
45137;DHT22;30894;51.740;19.498;2023-02-05T13:10:21;11.10;99.20
45137;DHT22;30894;51.740;19.498;2023-02-05T13:12:52;11.10;99.60
45137;DHT22;30894;51.740;19.498;2023-02-05T13:15:30;11.20;99.50
45137;DHT22;30894;51.740;19.498;2023-02-05T13:20:54;11.30;99.50
45137;DHT22;30894;51.740;19.498;2023-02-05T13:23:55;11.20;99.60
45137;DHT22;30894;51.740;19.498;2023-02-05T13:26:46;11.10;99.90
45137;DHT22;30894;51.740;19.498;2023-02-05T13:29:37;11.00;99.90
45137;DHT22;30894;51.740;19.498;2023-02-05T13:32:12;10.80;99.90
45137;DHT22;30894;51.740;19.498;2023-02-05T13:34:40;10.70;99.90
45137;DHT22;30894;51.740;19.498;2023-02-05T13:37:24;10.50;99.90
45137;DHT22;30894;51.740;19.498;2023-02-05T13:43:02;10.10;99.90
45137;DHT22;30894;51.740;19.498;2023-02-05T13:55:12;9.30;99.90
45137;DHT22;30894;51.740;19.498;2023-02-05T13:58:10;9.10;99.90
45137;DHT22;30894;51.740;19.498;2023-02-05T14:00:42;8.90;99.90
45137;DHT22;30894;51.740;19.498;2023-02-05T14:03:24;8.60;99.90
45137;DHT22;30894;51.740;19.498;2023-02-05T14:05:52;8.10;99.90
45137;DHT22;30894;51.740;19.498;2023-02-05T14:08:25;7.80;99.90
45137;DHT22;30894;51.740;19.498;2023-02-05T14:10:58;7.30;99.90
45137;DHT22;30894;51.740;19.498;2023-02-05T14:13:29;6.70;99.90
45137;DHT22;30894;51.740;19.498;2023-02-05T14:24:38;6.30;99.90
45137;DHT22;30894;51.740;19.498;2023-02-05T14:33:27;6.00;99.90
45137;DHT22;30894;51.740;19.498;2023-02-05T14:39:05;5.80;99.90
45137;DHT22;30894;51.740;19.498;2023-02-05T14:42:03;5.70;99.90
45137;DHT22;30894;51.740;19.498;2023-02-05T14:44:34;5.40;99.90
45137;DHT22;30894;51.740;19.498;2023-02-05T14:47:22;5.10;99.90
45137;DHT22;30894;51.740;19.498;2023-02-05T14:50:02;4.80;99.90
45137;DHT22;30894;51.740;19.498;2023-02-05T14:52:45;4.50;99.90
45137;DHT22;30894;51.740;19.498;2023-02-05T15:00:36;3.50;99.90
45137;DHT22;30894;51.740;19.498;2023-02-05T15:19:43;1.20;99.90
45137;DHT22;30894;51.740;19.498;2023-02-05T15:25:09;0.60;99.90
45137;DHT22;30894;51.740;19.498;2023-02-05T15:28:17;0.30;99.90
45137;DHT22;30894;51.740;19.498;2023-02-05T15:31:03;-0.30;99.90
45137;DHT22;30894;51.740;19.498;2023-02-05T15:33:51;-0.70;99.90
45137;DHT22;30894;51.740;19.498;2023-02-05T15:36:30;-1.20;99.90
45137;DHT22;30894;51.740;19.498;2023-02-05T15:39:10;-1.60;99.90
45137;DHT22;30894;51.740;19.498;2023-02-05T15:41:42;-2.00;99.90
45137;DHT22;30894;51.740;19.498;2023-02-05T15:44:27;-2.30;99.90
45137;DHT22;30894;51.740;19.498;2023-02-05T15:46:56;-2.70;99.90
45137;DHT22;30894;51.740;19.498;2023-02-05T15:49:30;-2.90;99.90
45137;DHT22;30894;51.740;19.498;2023-02-05T15:52:02;-3.20;99.90
45137;DHT22;30894;51.740;19.498;2023-02-05T15:54:34;-3.40;99.90
45137;DHT22;30894;51.740;19.498;2023-02-05T15:57:03;-3.60;99.90
45137;DHT22;30894;51.740;19.498;2023-02-05T15:59:31;-3.80;99.90
45137;DHT22;30894;51.740;19.498;2023-02-05T16:05:00;-4.00;99.90
45137;DHT22;30894;51.740;19.498;2023-02-05T16:07:40;-4.20;99.90
45137;DHT22;30894;51.740;19.498;2023-02-05T16:10:19;-4.40;99.90
45137;DHT22;30894;51.740;19.498;2023-02-05T16:16:02;-4.70;99.90
45137;DHT22;30894;51.740;19.498;2023-02-05T16:18:41;-4.70;99.90
45137;DHT22;30894;51.740;19.498;2023-02-05T16:21:31;-4.60;99.90
45137;DHT22;30894;51.740;19.498;2023-02-05T16:24:05;-4.40;99.90
45137;DHT22;30894;51.740;19.498;2023-02-05T16:26:47;-4.20;99.90
45137;DHT22;30894;51.740;19.498;2023-02-05T16:29:36;-4.10;99.90
45137;DHT22;30894;51.740;19.498;2023-02-05T16:32:30;-3.90;99.90
45137;DHT22;30894;51.740;19.498;2023-02-05T16:35:01;-3.80;99.90
45137;DHT22;30894;51.740;19.498;2023-02-05T16:37:30;-3.70;99.90
45137;DHT22;30894;51.740;19.498;2023-02-05T16:39:59;-3.60;99.90
45137;DHT22;30894;51.740;19.498;2023-02-05T16:42:37;-3.40;99.90
45137;DHT22;30894;51.740;19.498;2023-02-05T16:45:22;-3.30;99.90
45137;DHT22;30894;51.740;19.498;2023-02-05T16:50:50;-3.00;99.90
45137;DHT22;30894;51.740;19.498;2023-02-05T16:53:23;-2.90;99.90
45137;DHT22;30894;51.740;19.498;2023-02-05T16:56:10;-2.80;99.90
45137;DHT22;30894;51.740;19.498;2023-02-05T16:58:47;-2.90;99.90
45137;DHT22;30894;51.740;19.498;2023-02-05T17:01:24;-2.80;99.90
45137;DHT22;30894;51.740;19.498;2023-02-05T17:03:56;-2.70;99.90
45137;DHT22;30894;51.740;19.498;2023-02-05T17:06:22;-2.60;99.90
45137;DHT22;30894;51.740;19.498;2023-02-05T17:08:52;-2.60;99.90
45137;DHT22;30894;51.740;19.498;2023-02-05T17:11:36;-2.60;99.90
45137;DHT22;30894;51.740;19.498;2023-02-05T17:14:30;-2.50;99.90
45137;DHT22;30894;51.740;19.498;2023-02-05T17:19:39;-2.40;99.90
45137;DHT22;30894;51.740;19.498;2023-02-05T17:24:48;-2.10;99.90
45137;DHT22;30894;51.740;19.498;2023-02-05T17:27:22;-2.10;99.90
45137;DHT22;30894;51.740;19.498;2023-02-05T17:29:56;-2.00;99.90
45137;DHT22;30894;51.740;19.498;2023-02-05T17:32:23;-1.90;99.90
45137;DHT22;30894;51.740;19.498;2023-02-05T17:34:51;-1.80;99.90
45137;DHT22;30894;51.740;19.498;2023-02-05T17:37:20;-1.80;99.90
45137;DHT22;30894;51.740;19.498;2023-02-05T17:39:46;-1.80;99.90
45137;DHT22;30894;51.740;19.498;2023-02-05T17:42:25;-1.80;99.90
45137;DHT22;30894;51.740;19.498;2023-02-05T17:44:57;-1.80;99.90
45137;DHT22;30894;51.740;19.498;2023-02-05T17:47:26;-1.80;99.90
45137;DHT22;30894;51.740;19.498;2023-02-05T17:49:53;-1.80;99.90
45137;DHT22;30894;51.740;19.498;2023-02-05T17:52:24;-1.70;99.90
45137;DHT22;30894;51.740;19.498;2023-02-05T17:54:50;-1.70;99.90
45137;DHT22;30894;51.740;19.498;2023-02-05T17:57:20;-1.70;99.90
45137;DHT22;30894;51.740;19.498;2023-02-05T17:59:48;-1.70;99.90
45137;DHT22;30894;51.740;19.498;2023-02-05T18:02:14;-1.70;99.90
45137;DHT22;30894;51.740;19.498;2023-02-05T18:04:41;-1.60;99.90
45137;DHT22;30894;51.740;19.498;2023-02-05T18:07:20;-1.70;99.90
45137;DHT22;30894;51.740;19.498;2023-02-05T18:09:56;-1.60;99.90
45137;DHT22;30894;51.740;19.498;2023-02-05T18:12:23;-1.60;99.90
45137;DHT22;30894;51.740;19.498;2023-02-05T18:15:00;-1.60;99.90
45137;DHT22;30894;51.740;19.498;2023-02-05T18:17:39;-1.60;99.90
45137;DHT22;30894;51.740;19.498;2023-02-05T18:20:06;-1.50;99.90
45137;DHT22;30894;51.740;19.498;2023-02-05T18:22:34;-1.50;99.90
45137;DHT22;30894;51.740;19.498;2023-02-05T18:25:00;-1.50;99.90
45137;DHT22;30894;51.740;19.498;2023-02-05T18:27:26;-1.50;99.90
45137;DHT22;30894;51.740;19.498;2023-02-05T18:29:53;-1.50;99.90
45137;DHT22;30894;51.740;19.498;2023-02-05T18:32:19;-1.50;99.90
45137;DHT22;30894;51.740;19.498;2023-02-05T18:34:49;-1.40;99.90
45137;DHT22;30894;51.740;19.498;2023-02-05T18:37:16;-1.50;99.90
45137;DHT22;30894;51.740;19.498;2023-02-05T18:39:43;-1.50;99.90
45137;DHT22;30894;51.740;19.498;2023-02-05T18:42:10;-1.50;99.90
45137;DHT22;30894;51.740;19.498;2023-02-05T18:44:37;-1.50;99.90